Jeffrey G Stover — WDF2069 — position and weather

sailwx.info

Track history (hours):
 
Tides and Currents Weather Stations Pressure Air Temp Water Temp Dewpoint Dewpoint Depression Visibility Wind Speed Wind Dir Waves Ship Positions

Jeffrey G Stover

Owner: AEP River Operations LLC, Chesterfield, MO. More information available from US FCC via Universal Licensing System and Coast Guard Vessel Documentation Center.

Last reported at 2016-Jan-01 17:26 UTC. Time now 2016-Jun-27 02:28 UTC.
Position N 32°41' W 091°05'.
Warning: this ship's position is months out of date.

Length 64 m; draft 3.1 m.

Type: Tow > 200 m length. MMSI: 367424480.

Date/timePositionNaut miles runAvg speedWind from/ knotsBaromVisibWave heightAir tempDewpointWater temp
2016-Jan-01 17:26N 32°41' W 091°05'5 4.6
2016-Jan-01 16:18N 32°37' W 091°09'3 4.7
2016-Jan-01 15:34N 32°34' W 091°07'5 4.5
2016-Jan-01 14:34N 32°29' W 091°06'4 4.1
2016-Jan-01 13:34N 32°26' W 091°03'4 4.1
2016-Jan-01 12:34N 32°23' W 090°60'3 3.3
2016-Jan-01 11:34N 32°21' W 090°57'3 3.0
2016-Jan-01 10:34N 32°19' W 090°55'4 4.1
2016-Jan-01 09:34N 32°16' W 090°58'4 4.5
2016-Jan-01 08:34N 32°11' W 090°60'4 4.1
2016-Jan-01 07:34N 32°07' W 091°01'4 4.4
2016-Jan-01 06:33N 32°07' W 091°07'5 4.6
2016-Jan-01 05:29N 32°03' W 091°04'  
Track history (hours):
 
Tides and Currents Weather Stations Pressure Air Temp Water Temp Dewpoint Dewpoint Depression Visibility Wind Speed Wind Dir Waves Ship Positions

Jeffrey G Stover

Owner: AEP River Operations LLC, Chesterfield, MO. More information available from US FCC via Universal Licensing System and Coast Guard Vessel Documentation Center.

Last reported at 2016-Jan-01 17:26 UTC. Time now 2016-Jun-27 02:28 UTC.
Position N 32°41' W 091°05'.
Warning: this ship's position is months out of date.

Length 64 m; draft 3.1 m.

Type: Tow > 200 m length. MMSI: 367424480.

Date/timePositionNaut miles runAvg speedWind from/ knotsBaromVisibWave heightAir tempDewpointWater temp
2016-Jan-01 17:26N 32°41' W 091°05'5 4.6
2016-Jan-01 16:18N 32°37' W 091°09'3 4.7
2016-Jan-01 15:34N 32°34' W 091°07'5 4.5
2016-Jan-01 14:34N 32°29' W 091°06'4 4.1
2016-Jan-01 13:34N 32°26' W 091°03'4 4.1
2016-Jan-01 12:34N 32°23' W 090°60'3 3.3
2016-Jan-01 11:34N 32°21' W 090°57'3 3.0
2016-Jan-01 10:34N 32°19' W 090°55'4 4.1
2016-Jan-01 09:34N 32°16' W 090°58'4 4.5
2016-Jan-01 08:34N 32°11' W 090°60'4 4.1
2016-Jan-01 07:34N 32°07' W 091°01'4 4.4
2016-Jan-01 06:33N 32°07' W 091°07'5 4.6
2016-Jan-01 05:29N 32°03' W 091°04'  

Dump ship's entire track history